sensor_id;sensor_type;location;lat;lon;timestamp;pressure;altitude;pressure_sealevel;temperature;humidity
9969;BME280;5025;48.890;9.278;2023-04-06T00:00:02;99057.78;;;4.18;51.74
9969;BME280;5025;48.890;9.278;2023-04-06T00:02:27;99063.97;;;4.19;51.78
9969;BME280;5025;48.890;9.278;2023-04-06T00:04:52;99054.66;;;4.15;51.81
9969;BME280;5025;48.890;9.278;2023-04-06T00:07:17;99062.03;;;4.12;51.87
9969;BME280;5025;48.890;9.278;2023-04-06T00:09:43;99054.19;;;4.11;52.29
9969;BME280;5025;48.890;9.278;2023-04-06T00:12:08;99053.50;;;4.09;52.33
9969;BME280;5025;48.890;9.278;2023-04-06T00:14:33;99050.84;;;4.09;52.33
9969;BME280;5025;48.890;9.278;2023-04-06T00:16:59;99054.06;;;4.04;52.32
9969;BME280;5025;48.890;9.278;2023-04-06T00:19:24;99049.75;;;4.03;52.42
9969;BME280;5025;48.890;9.278;2023-04-06T00:21:49;99046.56;;;4.00;52.39
9969;BME280;5025;48.890;9.278;2023-04-06T00:24:15;99055.16;;;3.95;52.70
9969;BME280;5025;48.890;9.278;2023-04-06T00:26:40;99047.50;;;3.92;52.72
9969;BME280;5025;48.890;9.278;2023-04-06T00:29:06;99046.84;;;3.90;52.61
9969;BME280;5025;48.890;9.278;2023-04-06T00:31:31;99042.69;;;3.87;52.73
9969;BME280;5025;48.890;9.278;2023-04-06T00:33:57;99041.03;;;3.86;52.23
9969;BME280;5025;48.890;9.278;2023-04-06T00:36:23;99041.22;;;3.85;52.63
9969;BME280;5025;48.890;9.278;2023-04-06T00:38:48;99043.06;;;3.84;52.53
9969;BME280;5025;48.890;9.278;2023-04-06T00:41:14;99039.06;;;3.80;52.43
9969;BME280;5025;48.890;9.278;2023-04-06T00:43:39;99028.75;;;3.77;52.48
9969;BME280;5025;48.890;9.278;2023-04-06T00:46:05;99029.91;;;3.74;52.47
9969;BME280;5025;48.890;9.278;2023-04-06T00:48:31;99031.94;;;3.72;52.36
9969;BME280;5025;48.890;9.278;2023-04-06T00:50:57;99039.13;;;3.72;52.34
9969;BME280;5025;48.890;9.278;2023-04-06T00:53:22;99034.16;;;3.69;52.68
9969;BME280;5025;48.890;9.278;2023-04-06T00:55:48;99028.31;;;3.65;52.26
9969;BME280;5025;48.890;9.278;2023-04-06T00:58:13;99029.53;;;3.63;52.42
9969;BME280;5025;48.890;9.278;2023-04-06T01:00:38;99026.19;;;3.61;52.50
9969;BME280;5025;48.890;9.278;2023-04-06T01:03:03;99038.53;;;3.62;52.59
9969;BME280;5025;48.890;9.278;2023-04-06T01:05:33;99028.38;;;3.57;52.61
9969;BME280;5025;48.890;9.278;2023-04-06T01:07:59;99026.06;;;3.54;52.60
9969;BME280;5025;48.890;9.278;2023-04-06T01:10:26;99030.59;;;3.53;52.68
9969;BME280;5025;48.890;9.278;2023-04-06T01:12:51;99034.25;;;3.52;52.52
9969;BME280;5025;48.890;9.278;2023-04-06T01:15:17;99030.34;;;3.40;52.75
9969;BME280;5025;48.890;9.278;2023-04-06T01:17:42;99022.03;;;3.35;52.91
9969;BME280;5025;48.890;9.278;2023-04-06T01:20:07;99022.38;;;3.32;53.14
9969;BME280;5025;48.890;9.278;2023-04-06T01:22:32;99031.38;;;3.31;53.03
9969;BME280;5025;48.890;9.278;2023-04-06T01:24:58;99025.22;;;3.30;52.96
9969;BME280;5025;48.890;9.278;2023-04-06T01:27:23;99025.22;;;3.30;53.26
9969;BME280;5025;48.890;9.278;2023-04-06T01:29:50;99016.53;;;3.28;53.07
9969;BME280;5025;48.890;9.278;2023-04-06T01:32:15;99016.53;;;3.28;53.19
9969;BME280;5025;48.890;9.278;2023-04-06T01:34:41;99021.06;;;3.28;53.21
9969;BME280;5025;48.890;9.278;2023-04-06T01:37:06;99012.75;;;3.22;53.36
9969;BME280;5025;48.890;9.278;2023-04-06T01:39:31;99017.25;;;3.22;53.43
9969;BME280;5025;48.890;9.278;2023-04-06T01:41:57;99012.25;;;3.19;53.42
9969;BME280;5025;48.890;9.278;2023-04-06T01:44:22;99016.78;;;3.18;53.59
9969;BME280;5025;48.890;9.278;2023-04-06T01:46:47;99017.94;;;3.16;53.51
9969;BME280;5025;48.890;9.278;2023-04-06T01:49:12;99006.63;;;3.14;53.53
9969;BME280;5025;48.890;9.278;2023-04-06T01:51:38;99008.47;;;3.13;53.51
9969;BME280;5025;48.890;9.278;2023-04-06T01:54:03;99005.31;;;3.10;53.74
9969;BME280;5025;48.890;9.278;2023-04-06T01:56:29;98999.50;;;3.06;53.88
9969;BME280;5025;48.890;9.278;2023-04-06T01:58:54;99001.69;;;3.02;54.17
9969;BME280;5025;48.890;9.278;2023-04-06T02:01:20;99003.84;;;2.99;53.96
9969;BME280;5025;48.890;9.278;2023-04-06T02:03:45;98997.06;;;2.96;54.23
9969;BME280;5025;48.890;9.278;2023-04-06T02:06:11;98995.38;;;2.95;54.12
9969;BME280;5025;48.890;9.278;2023-04-06T02:08:36;99001.72;;;2.94;54.30
9969;BME280;5025;48.890;9.278;2023-04-06T02:11:01;99002.75;;;2.93;54.32
9969;BME280;5025;48.890;9.278;2023-04-06T02:13:26;99009.88;;;2.93;54.75
9969;BME280;5025;48.890;9.278;2023-04-06T02:15:52;99004.91;;;2.90;54.69
9969;BME280;5025;48.890;9.278;2023-04-06T02:18:17;98999.75;;;2.88;54.57
9969;BME280;5025;48.890;9.278;2023-04-06T02:20:43;98992.94;;;2.85;54.63
9969;BME280;5025;48.890;9.278;2023-04-06T02:23:09;98999.25;;;2.84;54.91
9969;BME280;5025;48.890;9.278;2023-04-06T02:25:34;98997.59;;;2.83;54.97
9969;BME280;5025;48.890;9.278;2023-04-06T02:28:00;98996.13;;;2.81;55.06
9969;BME280;5025;48.890;9.278;2023-04-06T02:30:25;98992.44;;;2.82;54.93
9969;BME280;5025;48.890;9.278;2023-04-06T02:32:50;98989.94;;;2.80;55.02
9969;BME280;5025;48.890;9.278;2023-04-06T02:35:16;98991.97;;;2.78;55.53
9969;BME280;5025;48.890;9.278;2023-04-06T02:37:41;98998.13;;;2.79;55.30
9969;BME280;5025;48.890;9.278;2023-04-06T02:40:07;98995.66;;;2.69;55.30
9969;BME280;5025;48.890;9.278;2023-04-06T02:42:32;98987.84;;;2.67;55.46
9969;BME280;5025;48.890;9.278;2023-04-06T02:44:58;98986.16;;;2.66;55.86
9969;BME280;5025;48.890;9.278;2023-04-06T02:47:23;98994.16;;;2.66;55.67
9969;BME280;5025;48.890;9.278;2023-04-06T02:49:48;98984.53;;;2.65;55.69
9969;BME280;5025;48.890;9.278;2023-04-06T02:52:13;98979.72;;;2.61;55.88
9969;BME280;5025;48.890;9.278;2023-04-06T02:54:39;98987.69;;;2.61;55.75
9969;BME280;5025;48.890;9.278;2023-04-06T02:57:04;98986.19;;;2.58;55.92
9969;BME280;5025;48.890;9.278;2023-04-06T02:59:30;98982.25;;;2.54;56.07
9969;BME280;5025;48.890;9.278;2023-04-06T03:01:56;98976.06;;;2.54;56.15
9969;BME280;5025;48.890;9.278;2023-04-06T03:04:21;98981.38;;;2.54;56.19
9969;BME280;5025;48.890;9.278;2023-04-06T03:06:50;98980.56;;;2.53;56.23
9969;BME280;5025;48.890;9.278;2023-04-06T03:09:15;98978.91;;;2.52;56.20
9969;BME280;5025;48.890;9.278;2023-04-06T03:11:40;98977.25;;;2.51;56.38
9969;BME280;5025;48.890;9.278;2023-04-06T03:14:06;98981.72;;;2.50;56.68
9969;BME280;5025;48.890;9.278;2023-04-06T03:16:31;98982.75;;;2.49;56.55
9969;BME280;5025;48.890;9.278;2023-04-06T03:18:56;98985.09;;;2.44;56.52
9969;BME280;5025;48.890;9.278;2023-04-06T03:21:21;98985.25;;;2.43;56.59
9969;BME280;5025;48.890;9.278;2023-04-06T03:23:47;98992.59;;;2.41;56.57
9969;BME280;5025;48.890;9.278;2023-04-06T03:26:14;98981.28;;;2.39;56.73
9969;BME280;5025;48.890;9.278;2023-04-06T03:28:40;98987.31;;;2.32;56.87
9969;BME280;5025;48.890;9.278;2023-04-06T03:31:05;98985.31;;;2.26;57.09
9969;BME280;5025;48.890;9.278;2023-04-06T03:33:30;98981.16;;;2.24;57.28
9969;BME280;5025;48.890;9.278;2023-04-06T03:35:56;98980.16;;;2.25;57.33
9969;BME280;5025;48.890;9.278;2023-04-06T03:38:21;98987.63;;;2.21;57.24
9969;BME280;5025;48.890;9.278;2023-04-06T03:40:46;98988.31;;;2.15;57.52
9969;BME280;5025;48.890;9.278;2023-04-06T03:43:11;99002.66;;;2.14;57.48
9969;BME280;5025;48.890;9.278;2023-04-06T03:45:37;98996.66;;;2.12;57.62
9969;BME280;5025;48.890;9.278;2023-04-06T03:48:02;99009.16;;;2.11;58.01
9969;BME280;5025;48.890;9.278;2023-04-06T03:50:28;99003.81;;;2.11;57.82
9969;BME280;5025;48.890;9.278;2023-04-06T03:52:53;98991.50;;;2.10;57.99
9969;BME280;5025;48.890;9.278;2023-04-06T03:55:18;98996.81;;;2.10;58.10
9969;BME280;5025;48.890;9.278;2023-04-06T03:57:43;99012.16;;;2.08;58.04
9969;BME280;5025;48.890;9.278;2023-04-06T04:00:09;99006.34;;;2.05;57.96
9969;BME280;5025;48.890;9.278;2023-04-06T04:02:38;99004.84;;;2.02;58.11
9969;BME280;5025;48.890;9.278;2023-04-06T04:05:04;99002.50;;;1.99;58.11
9969;BME280;5025;48.890;9.278;2023-04-06T04:07:29;99000.00;;;1.97;58.11
9969;BME280;5025;48.890;9.278;2023-04-06T04:09:55;99003.66;;;1.96;58.12
9969;BME280;5025;48.890;9.278;2023-04-06T04:12:21;99004.69;;;1.95;58.22
9969;BME280;5025;48.890;9.278;2023-04-06T04:14:46;99008.97;;;1.96;58.16
9969;BME280;5025;48.890;9.278;2023-04-06T04:17:11;99015.97;;;1.97;58.48
9969;BME280;5025;48.890;9.278;2023-04-06T04:19:36;99013.31;;;1.97;58.36
9969;BME280;5025;48.890;9.278;2023-04-06T04:22:02;99013.97;;;2.00;58.31
9969;BME280;5025;48.890;9.278;2023-04-06T04:24:30;99012.84;;;1.94;58.26
9969;BME280;5025;48.890;9.278;2023-04-06T04:26:55;99014.66;;;1.93;58.57
9969;BME280;5025;48.890;9.278;2023-04-06T04:29:21;99018.16;;;1.94;58.35
9969;BME280;5025;48.890;9.278;2023-04-06T04:31:48;99014.00;;;1.91;58.52
9969;BME280;5025;48.890;9.278;2023-04-06T04:34:14;99017.66;;;1.90;58.58
9969;BME280;5025;48.890;9.278;2023-04-06T04:36:40;99012.47;;;1.89;58.64
9969;BME280;5025;48.890;9.278;2023-04-06T04:39:07;99024.50;;;1.85;58.59
9969;BME280;5025;48.890;9.278;2023-04-06T04:41:32;99028.47;;;1.81;58.60
9969;BME280;5025;48.890;9.278;2023-04-06T04:43:57;99023.31;;;1.79;58.65
9969;BME280;5025;48.890;9.278;2023-04-06T04:46:23;99024.31;;;1.78;58.74
9969;BME280;5025;48.890;9.278;2023-04-06T04:48:48;99020.97;;;1.76;58.91
9969;BME280;5025;48.890;9.278;2023-04-06T04:51:13;99025.31;;;1.77;58.83
9969;BME280;5025;48.890;9.278;2023-04-06T04:53:38;99016.47;;;1.76;59.02
9969;BME280;5025;48.890;9.278;2023-04-06T04:56:04;99017.34;;;1.77;58.87
9969;BME280;5025;48.890;9.278;2023-04-06T04:58:29;99016.47;;;1.76;58.83
9969;BME280;5025;48.890;9.278;2023-04-06T05:00:55;99023.31;;;1.79;59.00
9969;BME280;5025;48.890;9.278;2023-04-06T05:03:25;99022.66;;;1.77;58.77
9969;BME280;5025;48.890;9.278;2023-04-06T05:05:51;99033.97;;;1.79;58.93
9969;BME280;5025;48.890;9.278;2023-04-06T05:08:17;99032.13;;;1.79;59.08
9969;BME280;5025;48.890;9.278;2023-04-06T05:10:42;99032.47;;;1.76;59.05
9969;BME280;5025;48.890;9.278;2023-04-06T05:13:09;99030.81;;;1.75;58.93
9969;BME280;5025;48.890;9.278;2023-04-06T05:15:34;99028.16;;;1.75;59.00
9969;BME280;5025;48.890;9.278;2023-04-06T05:18:00;99022.31;;;1.72;59.12
9969;BME280;5025;48.890;9.278;2023-04-06T05:20:26;99041.63;;;1.74;58.92
9969;BME280;5025;48.890;9.278;2023-04-06T05:22:51;99043.44;;;1.73;58.97
9969;BME280;5025;48.890;9.278;2023-04-06T05:25:17;99042.63;;;1.73;59.02
9969;BME280;5025;48.890;9.278;2023-04-06T05:27:42;99042.63;;;1.73;59.02
9969;BME280;5025;48.890;9.278;2023-04-06T05:30:08;99046.25;;;1.72;59.02
9969;BME280;5025;48.890;9.278;2023-04-06T05:32:33;99044.63;;;1.71;59.08
9969;BME280;5025;48.890;9.278;2023-04-06T05:34:59;99056.91;;;1.72;59.19
9969;BME280;5025;48.890;9.278;2023-04-06T05:37:24;99055.94;;;1.73;59.33
9969;BME280;5025;48.890;9.278;2023-04-06T05:39:50;99048.09;;;1.71;59.14
9969;BME280;5025;48.890;9.278;2023-04-06T05:42:15;99056.75;;;1.73;59.24
9969;BME280;5025;48.890;9.278;2023-04-06T05:44:41;99054.94;;;1.74;59.43
9969;BME280;5025;48.890;9.278;2023-04-06T05:47:07;99059.06;;;1.76;59.37
9969;BME280;5025;48.890;9.278;2023-04-06T05:49:32;99062.59;;;1.77;59.28
9969;BME280;5025;48.890;9.278;2023-04-06T05:51:57;99061.91;;;1.75;59.27
9969;BME280;5025;48.890;9.278;2023-04-06T05:54:23;99054.94;;;1.74;59.62
9969;BME280;5025;48.890;9.278;2023-04-06T05:56:48;99057.44;;;1.75;59.34
9969;BME280;5025;48.890;9.278;2023-04-06T05:59:13;99051.09;;;1.76;59.42
9969;BME280;5025;48.890;9.278;2023-04-06T06:01:38;99052.59;;;1.79;59.30
9969;BME280;5025;48.890;9.278;2023-04-06T06:04:04;99048.94;;;1.80;59.43
9969;BME280;5025;48.890;9.278;2023-04-06T06:06:29;99053.94;;;1.83;59.48
9969;BME280;5025;48.890;9.278;2023-04-06T06:08:56;99066.94;;;1.86;59.48
9969;BME280;5025;48.890;9.278;2023-04-06T06:11:24;99061.28;;;1.89;59.58
9969;BME280;5025;48.890;9.278;2023-04-06T06:13:49;99063.94;;;1.89;59.25
9969;BME280;5025;48.890;9.278;2023-04-06T06:16:15;99066.94;;;1.94;59.30
9969;BME280;5025;48.890;9.278;2023-04-06T06:18:40;99066.59;;;1.97;59.47
9969;BME280;5025;48.890;9.278;2023-04-06T06:21:05;99067.06;;;2.01;59.33
9969;BME280;5025;48.890;9.278;2023-04-06T06:23:31;99064.09;;;2.04;59.36
9969;BME280;5025;48.890;9.278;2023-04-06T06:25:56;99068.09;;;2.08;59.43
9969;BME280;5025;48.890;9.278;2023-04-06T06:28:23;99066.25;;;2.09;59.18
9969;BME280;5025;48.890;9.278;2023-04-06T06:30:50;99060.41;;;2.13;59.21
9969;BME280;5025;48.890;9.278;2023-04-06T06:33:15;99069.59;;;2.19;59.13
9969;BME280;5025;48.890;9.278;2023-04-06T06:35:40;99062.56;;;2.18;59.31
9969;BME280;5025;48.890;9.278;2023-04-06T06:38:06;99072.09;;;2.12;59.35
9969;BME280;5025;48.890;9.278;2023-04-06T06:40:31;99076.91;;;2.09;59.46
9969;BME280;5025;48.890;9.278;2023-04-06T06:42:56;99066.94;;;1.94;59.73
9969;BME280;5025;48.890;9.278;2023-04-06T06:45:22;99067.56;;;1.96;59.89
9969;BME280;5025;48.890;9.278;2023-04-06T06:47:47;99067.59;;;1.88;60.20
9969;BME280;5025;48.890;9.278;2023-04-06T06:50:12;99077.25;;;1.97;60.21
9969;BME280;5025;48.890;9.278;2023-04-06T06:52:38;99076.09;;;2.08;60.01
9969;BME280;5025;48.890;9.278;2023-04-06T06:55:05;99076.25;;;2.07;59.80
9969;BME280;5025;48.890;9.278;2023-04-06T06:57:30;99076.91;;;2.17;59.74
9969;BME280;5025;48.890;9.278;2023-04-06T06:59:55;99077.91;;;2.24;59.66
9969;BME280;5025;48.890;9.278;2023-04-06T07:02:20;99082.22;;;2.33;59.63
9969;BME280;5025;48.890;9.278;2023-04-06T07:04:49;99076.56;;;2.45;59.19
9969;BME280;5025;48.890;9.278;2023-04-06T07:07:14;99075.72;;;2.53;59.32
9969;BME280;5025;48.890;9.278;2023-04-06T07:09:40;99076.50;;;2.61;59.12
9969;BME280;5025;48.890;9.278;2023-04-06T07:12:05;99079.31;;;2.68;59.13
9969;BME280;5025;48.890;9.278;2023-04-06T07:14:30;99076.47;;;2.78;59.16
9969;BME280;5025;48.890;9.278;2023-04-06T07:16:57;99073.59;;;2.87;58.94
9969;BME280;5025;48.890;9.278;2023-04-06T07:19:22;99075.41;;;2.95;59.08
9969;BME280;5025;48.890;9.278;2023-04-06T07:21:47;99073.72;;;3.02;58.82
9969;BME280;5025;48.890;9.278;2023-04-06T07:24:14;99079.03;;;3.11;58.94
9969;BME280;5025;48.890;9.278;2023-04-06T07:26:40;99076.66;;;3.16;58.73
9969;BME280;5025;48.890;9.278;2023-04-06T07:29:05;99077.34;;;3.18;58.83
9969;BME280;5025;48.890;9.278;2023-04-06T07:31:31;99077.81;;;3.21;58.65
9969;BME280;5025;48.890;9.278;2023-04-06T07:33:56;99078.59;;;3.30;58.71
9969;BME280;5025;48.890;9.278;2023-04-06T07:36:21;99075.88;;;3.38;58.59
9969;BME280;5025;48.890;9.278;2023-04-06T07:38:46;99080.19;;;3.48;58.51
9969;BME280;5025;48.890;9.278;2023-04-06T07:41:12;99073.59;;;3.58;58.21
9969;BME280;5025;48.890;9.278;2023-04-06T07:43:37;99075.75;;;3.63;58.22
9969;BME280;5025;48.890;9.278;2023-04-06T07:46:03;99080.50;;;3.76;58.11
9969;BME280;5025;48.890;9.278;2023-04-06T07:48:28;99081.28;;;3.85;57.79
9969;BME280;5025;48.890;9.278;2023-04-06T07:51:01;99074.03;;;3.93;57.58
9969;BME280;5025;48.890;9.278;2023-04-06T07:53:27;99068.81;;;4.00;57.43
9969;BME280;5025;48.890;9.278;2023-04-06T07:55:52;99066.06;;;4.08;57.25
9969;BME280;5025;48.890;9.278;2023-04-06T07:58:18;99065.97;;;4.17;56.97
9969;BME280;5025;48.890;9.278;2023-04-06T08:00:43;99062.41;;;4.24;56.82
9969;BME280;5025;48.890;9.278;2023-04-06T08:03:08;99068.34;;;4.35;56.73
9969;BME280;5025;48.890;9.278;2023-04-06T08:05:34;99058.59;;;4.42;56.59
9969;BME280;5025;48.890;9.278;2023-04-06T08:07:59;99058.50;;;4.50;56.38
9969;BME280;5025;48.890;9.278;2023-04-06T08:10:25;99055.91;;;4.57;56.18
9969;BME280;5025;48.890;9.278;2023-04-06T08:12:50;99062.28;;;4.56;55.61
9969;BME280;5025;48.890;9.278;2023-04-06T08:15:15;99061.19;;;4.65;55.29
9969;BME280;5025;48.890;9.278;2023-04-06T08:17:43;99064.59;;;4.74;55.10
9969;BME280;5025;48.890;9.278;2023-04-06T08:20:08;99061.56;;;4.92;54.98
9969;BME280;5025;48.890;9.278;2023-04-06T08:22:33;99064.97;;;5.00;54.80
9969;BME280;5025;48.890;9.278;2023-04-06T08:24:59;99065.50;;;5.11;54.60
9969;BME280;5025;48.890;9.278;2023-04-06T08:27:24;99056.47;;;5.12;54.22
9969;BME280;5025;48.890;9.278;2023-04-06T08:29:50;99060.34;;;5.09;53.55
9969;BME280;5025;48.890;9.278;2023-04-06T08:32:16;99064.84;;;5.24;53.61
9969;BME280;5025;48.890;9.278;2023-04-06T08:34:42;99055.97;;;5.23;53.45
9969;BME280;5025;48.890;9.278;2023-04-06T08:37:07;99062.06;;;5.32;52.86
9969;BME280;5025;48.890;9.278;2023-04-06T08:39:32;99062.94;;;5.39;52.67
9969;BME280;5025;48.890;9.278;2023-04-06T08:41:59;99057.75;;;5.52;52.49
9969;BME280;5025;48.890;9.278;2023-04-06T08:44:28;99059.50;;;5.60;52.38
9969;BME280;5025;48.890;9.278;2023-04-06T08:46:54;99055.66;;;5.69;52.15
9969;BME280;5025;48.890;9.278;2023-04-06T08:49:20;99056.00;;;5.81;51.88
9969;BME280;5025;48.890;9.278;2023-04-06T08:51:46;99061.84;;;5.91;51.74
9969;BME280;5025;48.890;9.278;2023-04-06T08:54:12;99051.59;;;5.95;50.70
9969;BME280;5025;48.890;9.278;2023-04-06T08:56:38;99057.44;;;5.99;49.05
9969;BME280;5025;48.890;9.278;2023-04-06T08:59:04;99050.75;;;6.16;49.38
9969;BME280;5025;48.890;9.278;2023-04-06T09:01:32;99047.00;;;6.32;49.34
9969;BME280;5025;48.890;9.278;2023-04-06T09:03:59;99043.19;;;6.48;49.24
9969;BME280;5025;48.890;9.278;2023-04-06T09:06:32;99041.00;;;6.58;49.07
9969;BME280;5025;48.890;9.278;2023-04-06T09:08:57;99041.88;;;6.72;48.90
9969;BME280;5025;48.890;9.278;2023-04-06T09:11:23;99036.59;;;6.86;48.69
9969;BME280;5025;48.890;9.278;2023-04-06T09:13:50;99029.22;;;6.94;48.69
9969;BME280;5025;48.890;9.278;2023-04-06T09:16:17;99026.34;;;7.03;48.52
9969;BME280;5025;48.890;9.278;2023-04-06T09:18:43;99032.19;;;7.13;48.26
9969;BME280;5025;48.890;9.278;2023-04-06T09:21:08;99037.38;;;7.21;47.97
9969;BME280;5025;48.890;9.278;2023-04-06T09:23:34;99032.88;;;7.28;47.86
9969;BME280;5025;48.890;9.278;2023-04-06T09:26:05;99029.19;;;7.43;47.54
9969;BME280;5025;48.890;9.278;2023-04-06T09:31:06;99029.88;;;7.85;46.97
9969;BME280;5025;48.890;9.278;2023-04-06T09:33:31;99020.38;;;7.96;46.60
9969;BME280;5025;48.890;9.278;2023-04-06T09:35:57;99019.97;;;8.05;46.19
9969;BME280;5025;48.890;9.278;2023-04-06T09:38:22;99022.06;;;8.17;45.94
9969;BME280;5025;48.890;9.278;2023-04-06T09:40:51;99014.59;;;8.19;45.11
9969;BME280;5025;48.890;9.278;2023-04-06T09:43:26;99021.41;;;8.28;44.94
9969;BME280;5025;48.890;9.278;2023-04-06T09:45:52;99017.47;;;8.37;44.20
9969;BME280;5025;48.890;9.278;2023-04-06T09:48:19;99014.97;;;8.42;41.81
9969;BME280;5025;48.890;9.278;2023-04-06T09:50:47;99010.00;;;8.39;39.91
9969;BME280;5025;48.890;9.278;2023-04-06T09:53:13;99006.31;;;8.47;39.14
9969;BME280;5025;48.890;9.278;2023-04-06T09:55:43;99014.59;;;8.59;38.73
9969;BME280;5025;48.890;9.278;2023-04-06T09:58:19;99010.19;;;8.71;38.67
9969;BME280;5025;48.890;9.278;2023-04-06T10:00:59;99006.81;;;8.96;38.60
9969;BME280;5025;48.890;9.278;2023-04-06T10:03:50;99007.81;;;9.08;37.95
9969;BME280;5025;48.890;9.278;2023-04-06T10:06:21;98999.22;;;9.25;38.14
9969;BME280;5025;48.890;9.278;2023-04-06T10:08:49;99008.69;;;9.41;38.04
9969;BME280;5025;48.890;9.278;2023-04-06T10:11:15;99002.00;;;9.50;37.77
9969;BME280;5025;48.890;9.278;2023-04-06T10:13:41;98999.88;;;9.59;37.56
9969;BME280;5025;48.890;9.278;2023-04-06T10:16:07;99003.09;;;9.74;37.50
9969;BME280;5025;48.890;9.278;2023-04-06T10:18:33;98999.50;;;9.87;37.32
9969;BME280;5025;48.890;9.278;2023-04-06T10:21:06;99001.25;;;10.00;36.99
9969;BME280;5025;48.890;9.278;2023-04-06T10:23:53;98994.69;;;10.14;36.56
9969;BME280;5025;48.890;9.278;2023-04-06T10:26:22;98991.72;;;10.22;36.38
9969;BME280;5025;48.890;9.278;2023-04-06T10:28:48;98983.34;;;10.31;36.44
9969;BME280;5025;48.890;9.278;2023-04-06T10:31:14;98983.69;;;10.41;36.43
9969;BME280;5025;48.890;9.278;2023-04-06T10:33:40;98995.88;;;10.50;35.48
9969;BME280;5025;48.890;9.278;2023-04-06T10:36:14;98980.41;;;10.32;33.96
9969;BME280;5025;48.890;9.278;2023-04-06T10:38:41;98991.94;;;10.46;34.51
9969;BME280;5025;48.890;9.278;2023-04-06T10:41:08;98995.34;;;10.60;34.12
9969;BME280;5025;48.890;9.278;2023-04-06T10:43:35;98987.00;;;10.62;33.41
9969;BME280;5025;48.890;9.278;2023-04-06T10:46:02;98987.75;;;10.69;33.47
9969;BME280;5025;48.890;9.278;2023-04-06T10:51:08;98980.47;;;11.06;33.05
9969;BME280;5025;48.890;9.278;2023-04-06T10:53:34;98984.66;;;11.21;33.16
9969;BME280;5025;48.890;9.278;2023-04-06T10:56:00;98976.78;;;11.19;32.73
9969;BME280;5025;48.890;9.278;2023-04-06T10:58:27;98969.94;;;11.17;32.12
9969;BME280;5025;48.890;9.278;2023-04-06T11:00:54;98976.00;;;11.30;32.47
9969;BME280;5025;48.890;9.278;2023-04-06T11:03:19;98976.88;;;11.43;32.63
9969;BME280;5025;48.890;9.278;2023-04-06T11:05:46;98979.84;;;11.53;32.29
9969;BME280;5025;48.890;9.278;2023-04-06T11:08:32;98978.13;;;11.59;32.28
9969;BME280;5025;48.890;9.278;2023-04-06T11:11:08;98971.41;;;11.61;31.45
9969;BME280;5025;48.890;9.278;2023-04-06T11:13:53;98969.78;;;11.60;31.64
9969;BME280;5025;48.890;9.278;2023-04-06T11:16:23;98966.53;;;11.82;31.65
9969;BME280;5025;48.890;9.278;2023-04-06T11:19:03;98961.63;;;12.02;31.18
9969;BME280;5025;48.890;9.278;2023-04-06T11:21:35;98957.16;;;12.20;31.05
9969;BME280;5025;48.890;9.278;2023-04-06T11:24:11;98950.59;;;12.40;30.97
9969;BME280;5025;48.890;9.278;2023-04-06T11:26:52;98953.63;;;12.55;29.84
9969;BME280;5025;48.890;9.278;2023-04-06T11:29:19;98950.81;;;12.26;28.86
9969;BME280;5025;48.890;9.278;2023-04-06T11:31:50;98943.50;;;12.27;29.24
9969;BME280;5025;48.890;9.278;2023-04-06T11:34:18;98944.22;;;12.46;29.50
9969;BME280;5025;48.890;9.278;2023-04-06T11:36:45;98935.00;;;12.47;28.45
9969;BME280;5025;48.890;9.278;2023-04-06T11:39:12;98934.41;;;12.68;28.99
9969;BME280;5025;48.890;9.278;2023-04-06T11:41:38;98933.91;;;12.83;28.85
9969;BME280;5025;48.890;9.278;2023-04-06T11:44:03;98929.66;;;12.87;28.76
9969;BME280;5025;48.890;9.278;2023-04-06T11:46:28;98928.19;;;13.25;28.85
9969;BME280;5025;48.890;9.278;2023-04-06T11:48:58;98922.31;;;13.57;28.85
9969;BME280;5025;48.890;9.278;2023-04-06T11:51:25;98914.25;;;13.79;28.70
9969;BME280;5025;48.890;9.278;2023-04-06T11:53:52;98915.41;;;13.84;28.21
9969;BME280;5025;48.890;9.278;2023-04-06T11:58:50;98914.75;;;13.76;28.50
9969;BME280;5025;48.890;9.278;2023-04-06T12:01:15;98909.50;;;13.87;28.37
9969;BME280;5025;48.890;9.278;2023-04-06T12:03:40;98913.34;;;13.91;28.45
9969;BME280;5025;48.890;9.278;2023-04-06T12:06:05;98913.09;;;13.92;28.07
9969;BME280;5025;48.890;9.278;2023-04-06T12:08:31;98909.13;;;14.00;28.13
9969;BME280;5025;48.890;9.278;2023-04-06T12:10:56;98909.63;;;13.97;27.65
9969;BME280;5025;48.890;9.278;2023-04-06T12:13:21;98906.84;;;13.92;26.59
9969;BME280;5025;48.890;9.278;2023-04-06T12:15:47;98904.06;;;14.04;27.14
9969;BME280;5025;48.890;9.278;2023-04-06T12:18:12;98903.22;;;13.86;26.19
9969;BME280;5025;48.890;9.278;2023-04-06T12:20:37;98896.66;;;13.82;27.09
9969;BME280;5025;48.890;9.278;2023-04-06T12:23:02;98896.47;;;13.89;27.10
9969;BME280;5025;48.890;9.278;2023-04-06T12:25:28;98896.66;;;13.99;26.77
9969;BME280;5025;48.890;9.278;2023-04-06T12:27:53;98888.88;;;14.08;26.71
9969;BME280;5025;48.890;9.278;2023-04-06T12:30:19;98888.72;;;14.14;26.85
9969;BME280;5025;48.890;9.278;2023-04-06T12:32:44;98884.81;;;14.27;26.68
9969;BME280;5025;48.890;9.278;2023-04-06T12:35:09;98889.16;;;14.45;26.81
9969;BME280;5025;48.890;9.278;2023-04-06T12:37:36;98887.22;;;14.63;26.97
9969;BME280;5025;48.890;9.278;2023-04-06T12:40:02;98886.25;;;14.74;26.82
9969;BME280;5025;48.890;9.278;2023-04-06T12:42:28;98876.72;;;14.94;26.80
9969;BME280;5025;48.890;9.278;2023-04-06T12:44:57;98869.22;;;15.06;26.63
9969;BME280;5025;48.890;9.278;2023-04-06T12:47:22;98876.38;;;15.12;26.27
9969;BME280;5025;48.890;9.278;2023-04-06T12:49:47;98877.69;;;15.37;26.25
9969;BME280;5025;48.890;9.278;2023-04-06T12:52:13;98870.78;;;15.56;26.20
9969;BME280;5025;48.890;9.278;2023-04-06T12:54:38;98867.59;;;15.65;26.22
9969;BME280;5025;48.890;9.278;2023-04-06T12:57:04;98870.38;;;15.75;26.18
9969;BME280;5025;48.890;9.278;2023-04-06T12:59:29;98869.72;;;15.90;26.16
9969;BME280;5025;48.890;9.278;2023-04-06T13:01:59;98856.84;;;15.80;25.87
9969;BME280;5025;48.890;9.278;2023-04-06T13:04:25;98861.38;;;16.07;25.87
9969;BME280;5025;48.890;9.278;2023-04-06T13:06:51;98857.97;;;16.27;25.34
9969;BME280;5025;48.890;9.278;2023-04-06T13:09:16;98855.53;;;16.36;25.80
9969;BME280;5025;48.890;9.278;2023-04-06T13:11:42;98857.25;;;16.47;25.25
9969;BME280;5025;48.890;9.278;2023-04-06T13:14:07;98857.19;;;16.42;24.63
9969;BME280;5025;48.890;9.278;2023-04-06T13:16:32;98847.59;;;16.29;24.43
9969;BME280;5025;48.890;9.278;2023-04-06T13:18:57;98849.97;;;16.15;23.99
9969;BME280;5025;48.890;9.278;2023-04-06T13:21:23;98845.94;;;16.23;24.08
9969;BME280;5025;48.890;9.278;2023-04-06T13:23:48;98847.09;;;16.37;24.65
9969;BME280;5025;48.890;9.278;2023-04-06T13:26:13;98847.47;;;16.61;24.64
9969;BME280;5025;48.890;9.278;2023-04-06T13:28:40;98839.09;;;16.78;24.50
9969;BME280;5025;48.890;9.278;2023-04-06T13:31:06;98835.00;;;16.81;24.24